sensor_id;sensor_type;location;lat;lon;timestamp;P1;durP1;ratioP1;P2;durP2;ratioP2
49590;SDS011;35496;-21.974;-46.800;2022-12-20T00:01:24;1.95;;;0.98;;
49590;SDS011;35496;-21.974;-46.800;2022-12-20T00:03:54;1.13;;;1.02;;
49590;SDS011;35496;-21.974;-46.800;2022-12-20T00:06:23;2.35;;;1.23;;
49590;SDS011;35496;-21.974;-46.800;2022-12-20T00:08:54;1.55;;;0.93;;
49590;SDS011;35496;-21.974;-46.800;2022-12-20T00:11:22;1.77;;;1.65;;
49590;SDS011;35496;-21.974;-46.800;2022-12-20T00:13:49;0.80;;;0.80;;
49590;SDS011;35496;-21.974;-46.800;2022-12-20T00:16:17;3.33;;;1.63;;
49590;SDS011;35496;-21.974;-46.800;2022-12-20T00:18:45;2.13;;;1.25;;
49590;SDS011;35496;-21.974;-46.800;2022-12-20T00:21:13;0.60;;;0.60;;
49590;SDS011;35496;-21.974;-46.800;2022-12-20T00:23:41;0.88;;;0.88;;
49590;SDS011;35496;-21.974;-46.800;2022-12-20T00:26:11;0.93;;;0.93;;
49590;SDS011;35496;-21.974;-46.800;2022-12-20T00:28:40;0.60;;;0.60;;
49590;SDS011;35496;-21.974;-46.800;2022-12-20T00:31:08;1.23;;;0.82;;
49590;SDS011;35496;-21.974;-46.800;2022-12-20T00:33:36;0.77;;;0.77;;
49590;SDS011;35496;-21.974;-46.800;2022-12-20T00:36:04;0.52;;;0.50;;
49590;SDS011;35496;-21.974;-46.800;2022-12-20T00:38:31;0.63;;;0.47;;
49590;SDS011;35496;-21.974;-46.800;2022-12-20T00:40:59;0.50;;;0.50;;
49590;SDS011;35496;-21.974;-46.800;2022-12-20T00:43:31;0.90;;;0.65;;
49590;SDS011;35496;-21.974;-46.800;2022-12-20T00:45:59;1.65;;;1.10;;
49590;SDS011;35496;-21.974;-46.800;2022-12-20T00:48:27;2.20;;;1.00;;
49590;SDS011;35496;-21.974;-46.800;2022-12-20T00:50:58;0.68;;;0.68;;
49590;SDS011;35496;-21.974;-46.800;2022-12-20T00:53:26;1.92;;;1.00;;
49590;SDS011;35496;-21.974;-46.800;2022-12-20T00:55:54;0.60;;;0.60;;
49590;SDS011;35496;-21.974;-46.800;2022-12-20T00:58:21;0.93;;;0.82;;
49590;SDS011;35496;-21.974;-46.800;2022-12-20T01:00:48;3.45;;;0.80;;
49590;SDS011;35496;-21.974;-46.800;2022-12-20T01:03:15;11.57;;;1.45;;
49590;SDS011;35496;-21.974;-46.800;2022-12-20T01:05:51;0.70;;;0.70;;
49590;SDS011;35496;-21.974;-46.800;2022-12-20T01:08:22;1.30;;;1.20;;
49590;SDS011;35496;-21.974;-46.800;2022-12-20T01:11:00;2.95;;;1.50;;
49590;SDS011;35496;-21.974;-46.800;2022-12-20T01:13:32;1.70;;;1.27;;
49590;SDS011;35496;-21.974;-46.800;2022-12-20T01:16:07;1.52;;;1.42;;
49590;SDS011;35496;-21.974;-46.800;2022-12-20T01:18:39;1.10;;;0.80;;
49590;SDS011;35496;-21.974;-46.800;2022-12-20T01:21:07;1.92;;;0.73;;
49590;SDS011;35496;-21.974;-46.800;2022-12-20T01:23:35;4.88;;;1.40;;
49590;SDS011;35496;-21.974;-46.800;2022-12-20T01:26:04;2.65;;;0.75;;
49590;SDS011;35496;-21.974;-46.800;2022-12-20T01:28:36;0.20;;;0.20;;
49590;SDS011;35496;-21.974;-46.800;2022-12-20T01:31:07;0.50;;;0.50;;
49590;SDS011;35496;-21.974;-46.800;2022-12-20T01:33:35;3.33;;;0.87;;
49590;SDS011;35496;-21.974;-46.800;2022-12-20T01:36:03;0.77;;;0.28;;
49590;SDS011;35496;-21.974;-46.800;2022-12-20T01:38:32;0.30;;;0.30;;
49590;SDS011;35496;-21.974;-46.800;2022-12-20T01:41:00;0.60;;;0.40;;
49590;SDS011;35496;-21.974;-46.800;2022-12-20T01:43:47;1.55;;;1.05;;
49590;SDS011;35496;-21.974;-46.800;2022-12-20T01:46:14;0.40;;;0.38;;
49590;SDS011;35496;-21.974;-46.800;2022-12-20T01:48:43;1.27;;;1.00;;
49590;SDS011;35496;-21.974;-46.800;2022-12-20T01:51:17;2.20;;;1.30;;
49590;SDS011;35496;-21.974;-46.800;2022-12-20T01:53:44;0.82;;;0.50;;
49590;SDS011;35496;-21.974;-46.800;2022-12-20T01:56:13;1.70;;;1.20;;
49590;SDS011;35496;-21.974;-46.800;2022-12-20T01:58:40;3.97;;;1.52;;
49590;SDS011;35496;-21.974;-46.800;2022-12-20T02:01:09;4.90;;;1.88;;
49590;SDS011;35496;-21.974;-46.800;2022-12-20T02:03:36;2.90;;;0.63;;
49590;SDS011;35496;-21.974;-46.800;2022-12-20T02:06:14;1.60;;;0.73;;
49590;SDS011;35496;-21.974;-46.800;2022-12-20T02:08:45;4.10;;;1.65;;
49590;SDS011;35496;-21.974;-46.800;2022-12-20T02:16:24;2.38;;;0.77;;
49590;SDS011;35496;-21.974;-46.800;2022-12-20T02:21:42;0.70;;;0.52;;
49590;SDS011;35496;-21.974;-46.800;2022-12-20T02:29:52;1.25;;;0.70;;
49590;SDS011;35496;-21.974;-46.800;2022-12-20T02:35:10;0.85;;;0.43;;
49590;SDS011;35496;-21.974;-46.800;2022-12-20T02:37:47;0.60;;;0.40;;
49590;SDS011;35496;-21.974;-46.800;2022-12-20T02:40:16;2.50;;;1.05;;
49590;SDS011;35496;-21.974;-46.800;2022-12-20T02:42:47;1.67;;;0.77;;
49590;SDS011;35496;-21.974;-46.800;2022-12-20T02:45:19;1.45;;;0.47;;
49590;SDS011;35496;-21.974;-46.800;2022-12-20T02:50:20;1.98;;;0.95;;
49590;SDS011;35496;-21.974;-46.800;2022-12-20T02:53:07;2.22;;;0.60;;
49590;SDS011;35496;-21.974;-46.800;2022-12-20T02:58:59;0.25;;;0.25;;
49590;SDS011;35496;-21.974;-46.800;2022-12-20T03:01:02;0.60;;;0.38;;
49590;SDS011;35496;-21.974;-46.800;2022-12-20T03:03:32;0.77;;;0.63;;
49590;SDS011;35496;-21.974;-46.800;2022-12-20T03:06:00;0.98;;;0.50;;
49590;SDS011;35496;-21.974;-46.800;2022-12-20T03:08:28;0.65;;;0.65;;
49590;SDS011;35496;-21.974;-46.800;2022-12-20T03:10:55;1.10;;;0.70;;
49590;SDS011;35496;-21.974;-46.800;2022-12-20T03:13:22;0.85;;;0.60;;
49590;SDS011;35496;-21.974;-46.800;2022-12-20T03:15:50;0.68;;;0.68;;
49590;SDS011;35496;-21.974;-46.800;2022-12-20T03:18:17;5.10;;;1.15;;
49590;SDS011;35496;-21.974;-46.800;2022-12-20T03:20:43;0.93;;;0.68;;
49590;SDS011;35496;-21.974;-46.800;2022-12-20T03:23:10;1.45;;;1.35;;
49590;SDS011;35496;-21.974;-46.800;2022-12-20T03:25:37;1.88;;;1.00;;
49590;SDS011;35496;-21.974;-46.800;2022-12-20T03:28:03;1.70;;;1.60;;
49590;SDS011;35496;-21.974;-46.800;2022-12-20T03:30:30;1.65;;;0.90;;
49590;SDS011;35496;-21.974;-46.800;2022-12-20T03:32:57;1.80;;;1.13;;
49590;SDS011;35496;-21.974;-46.800;2022-12-20T03:35:23;1.42;;;0.90;;
49590;SDS011;35496;-21.974;-46.800;2022-12-20T03:37:50;1.15;;;0.60;;
49590;SDS011;35496;-21.974;-46.800;2022-12-20T03:40:17;0.77;;;0.77;;
49590;SDS011;35496;-21.974;-46.800;2022-12-20T03:42:43;0.65;;;0.63;;
49590;SDS011;35496;-21.974;-46.800;2022-12-20T03:45:10;0.93;;;0.93;;
49590;SDS011;35496;-21.974;-46.800;2022-12-20T03:47:37;1.48;;;0.75;;
49590;SDS011;35496;-21.974;-46.800;2022-12-20T03:50:04;2.05;;;0.95;;
49590;SDS011;35496;-21.974;-46.800;2022-12-20T03:52:32;1.52;;;1.40;;
49590;SDS011;35496;-21.974;-46.800;2022-12-20T03:54:59;1.30;;;1.05;;
49590;SDS011;35496;-21.974;-46.800;2022-12-20T03:57:25;5.07;;;2.13;;
49590;SDS011;35496;-21.974;-46.800;2022-12-20T03:59:52;3.72;;;2.55;;
49590;SDS011;35496;-21.974;-46.800;2022-12-20T04:02:19;5.22;;;2.38;;
49590;SDS011;35496;-21.974;-46.800;2022-12-20T04:04:46;3.35;;;2.05;;
49590;SDS011;35496;-21.974;-46.800;2022-12-20T04:07:13;2.92;;;1.75;;
49590;SDS011;35496;-21.974;-46.800;2022-12-20T04:09:39;2.33;;;1.13;;
49590;SDS011;35496;-21.974;-46.800;2022-12-20T04:12:06;0.65;;;0.65;;
49590;SDS011;35496;-21.974;-46.800;2022-12-20T04:14:32;1.90;;;0.90;;
49590;SDS011;35496;-21.974;-46.800;2022-12-20T04:17:00;4.30;;;0.75;;
49590;SDS011;35496;-21.974;-46.800;2022-12-20T04:19:27;0.85;;;0.70;;
49590;SDS011;35496;-21.974;-46.800;2022-12-20T04:21:53;1.25;;;1.00;;
49590;SDS011;35496;-21.974;-46.800;2022-12-20T04:24:20;1.23;;;0.88;;
49590;SDS011;35496;-21.974;-46.800;2022-12-20T04:26:47;0.65;;;0.65;;
49590;SDS011;35496;-21.974;-46.800;2022-12-20T04:29:14;1.55;;;1.10;;
49590;SDS011;35496;-21.974;-46.800;2022-12-20T04:31:41;1.00;;;0.57;;
49590;SDS011;35496;-21.974;-46.800;2022-12-20T04:34:07;0.50;;;0.50;;
49590;SDS011;35496;-21.974;-46.800;2022-12-20T04:36:34;0.70;;;0.60;;
49590;SDS011;35496;-21.974;-46.800;2022-12-20T04:39:01;0.52;;;0.43;;
49590;SDS011;35496;-21.974;-46.800;2022-12-20T04:41:28;1.20;;;0.85;;
49590;SDS011;35496;-21.974;-46.800;2022-12-20T04:43:56;0.47;;;0.47;;
49590;SDS011;35496;-21.974;-46.800;2022-12-20T04:46:24;1.15;;;0.70;;
49590;SDS011;35496;-21.974;-46.800;2022-12-20T04:48:51;0.63;;;0.63;;
49590;SDS011;35496;-21.974;-46.800;2022-12-20T04:51:18;0.43;;;0.43;;
49590;SDS011;35496;-21.974;-46.800;2022-12-20T04:53:45;0.85;;;0.85;;
49590;SDS011;35496;-21.974;-46.800;2022-12-20T04:56:13;1.13;;;0.77;;
49590;SDS011;35496;-21.974;-46.800;2022-12-20T04:58:43;0.73;;;0.73;;
49590;SDS011;35496;-21.974;-46.800;2022-12-20T05:01:11;1.92;;;1.67;;
49590;SDS011;35496;-21.974;-46.800;2022-12-20T05:03:38;1.33;;;0.63;;
49590;SDS011;35496;-21.974;-46.800;2022-12-20T05:06:05;0.80;;;0.80;;
49590;SDS011;35496;-21.974;-46.800;2022-12-20T05:08:32;3.72;;;2.70;;
49590;SDS011;35496;-21.974;-46.800;2022-12-20T05:11:01;3.35;;;3.15;;
49590;SDS011;35496;-21.974;-46.800;2022-12-20T05:13:28;2.95;;;2.70;;
49590;SDS011;35496;-21.974;-46.800;2022-12-20T05:15:55;2.50;;;1.25;;
49590;SDS011;35496;-21.974;-46.800;2022-12-20T05:18:22;1.27;;;1.27;;
49590;SDS011;35496;-21.974;-46.800;2022-12-20T05:20:50;4.30;;;1.85;;
49590;SDS011;35496;-21.974;-46.800;2022-12-20T05:23:39;1.67;;;1.30;;
49590;SDS011;35496;-21.974;-46.800;2022-12-20T05:26:23;1.63;;;1.17;;
49590;SDS011;35496;-21.974;-46.800;2022-12-20T05:28:53;1.60;;;1.15;;
49590;SDS011;35496;-21.974;-46.800;2022-12-20T05:31:20;1.30;;;1.15;;
49590;SDS011;35496;-21.974;-46.800;2022-12-20T05:33:47;1.00;;;1.00;;
49590;SDS011;35496;-21.974;-46.800;2022-12-20T05:36:13;1.55;;;1.45;;
49590;SDS011;35496;-21.974;-46.800;2022-12-20T05:38:40;1.35;;;0.73;;
49590;SDS011;35496;-21.974;-46.800;2022-12-20T05:41:07;1.00;;;0.90;;
49590;SDS011;35496;-21.974;-46.800;2022-12-20T05:43:33;0.68;;;0.65;;
49590;SDS011;35496;-21.974;-46.800;2022-12-20T05:46:00;1.23;;;0.63;;
49590;SDS011;35496;-21.974;-46.800;2022-12-20T05:48:27;1.10;;;0.80;;
49590;SDS011;35496;-21.974;-46.800;2022-12-20T05:50:53;1.25;;;0.95;;
49590;SDS011;35496;-21.974;-46.800;2022-12-20T05:53:20;3.17;;;1.25;;
49590;SDS011;35496;-21.974;-46.800;2022-12-20T05:55:48;2.28;;;1.33;;
49590;SDS011;35496;-21.974;-46.800;2022-12-20T05:58:16;1.63;;;1.52;;
49590;SDS011;35496;-21.974;-46.800;2022-12-20T06:00:43;1.67;;;1.35;;
49590;SDS011;35496;-21.974;-46.800;2022-12-20T06:03:12;1.13;;;1.08;;
49590;SDS011;35496;-21.974;-46.800;2022-12-20T06:05:39;2.65;;;2.45;;
49590;SDS011;35496;-21.974;-46.800;2022-12-20T06:08:07;5.28;;;2.75;;
49590;SDS011;35496;-21.974;-46.800;2022-12-20T06:10:35;2.05;;;1.77;;
49590;SDS011;35496;-21.974;-46.800;2022-12-20T06:13:01;2.05;;;1.20;;
49590;SDS011;35496;-21.974;-46.800;2022-12-20T06:15:29;2.05;;;0.88;;
49590;SDS011;35496;-21.974;-46.800;2022-12-20T06:17:56;1.85;;;1.75;;
49590;SDS011;35496;-21.974;-46.800;2022-12-20T06:20:23;1.80;;;1.45;;
49590;SDS011;35496;-21.974;-46.800;2022-12-20T06:22:50;2.05;;;1.27;;
49590;SDS011;35496;-21.974;-46.800;2022-12-20T06:25:17;1.38;;;0.70;;
49590;SDS011;35496;-21.974;-46.800;2022-12-20T06:27:43;0.90;;;0.85;;
49590;SDS011;35496;-21.974;-46.800;2022-12-20T06:30:10;1.85;;;0.75;;
49590;SDS011;35496;-21.974;-46.800;2022-12-20T06:32:37;1.20;;;1.10;;
49590;SDS011;35496;-21.974;-46.800;2022-12-20T06:35:04;1.95;;;0.60;;
49590;SDS011;35496;-21.974;-46.800;2022-12-20T06:37:32;2.65;;;1.17;;
49590;SDS011;35496;-21.974;-46.800;2022-12-20T06:39:58;1.88;;;1.10;;
49590;SDS011;35496;-21.974;-46.800;2022-12-20T06:42:25;1.13;;;1.00;;
49590;SDS011;35496;-21.974;-46.800;2022-12-20T06:44:51;1.15;;;0.82;;
49590;SDS011;35496;-21.974;-46.800;2022-12-20T06:47:18;0.82;;;0.82;;
49590;SDS011;35496;-21.974;-46.800;2022-12-20T06:49:45;1.88;;;1.05;;
49590;SDS011;35496;-21.974;-46.800;2022-12-20T06:52:12;1.40;;;1.08;;
49590;SDS011;35496;-21.974;-46.800;2022-12-20T06:54:38;1.65;;;1.10;;
49590;SDS011;35496;-21.974;-46.800;2022-12-20T06:57:05;1.23;;;1.13;;
49590;SDS011;35496;-21.974;-46.800;2022-12-20T06:59:31;0.75;;;0.60;;
49590;SDS011;35496;-21.974;-46.800;2022-12-20T07:01:58;0.90;;;0.60;;
49590;SDS011;35496;-21.974;-46.800;2022-12-20T07:04:25;3.55;;;1.30;;
49590;SDS011;35496;-21.974;-46.800;2022-12-20T07:06:52;2.65;;;0.60;;
49590;SDS011;35496;-21.974;-46.800;2022-12-20T07:09:19;1.15;;;0.80;;
49590;SDS011;35496;-21.974;-46.800;2022-12-20T07:11:45;2.00;;;1.10;;
49590;SDS011;35496;-21.974;-46.800;2022-12-20T07:14:12;1.60;;;1.02;;
49590;SDS011;35496;-21.974;-46.800;2022-12-20T07:16:39;2.75;;;1.52;;
49590;SDS011;35496;-21.974;-46.800;2022-12-20T07:19:11;4.38;;;1.58;;
49590;SDS011;35496;-21.974;-46.800;2022-12-20T07:21:40;2.80;;;2.15;;
49590;SDS011;35496;-21.974;-46.800;2022-12-20T07:24:07;1.52;;;1.42;;
49590;SDS011;35496;-21.974;-46.800;2022-12-20T07:26:34;1.70;;;1.10;;
49590;SDS011;35496;-21.974;-46.800;2022-12-20T07:29:01;2.67;;;1.75;;
49590;SDS011;35496;-21.974;-46.800;2022-12-20T07:31:27;1.48;;;1.38;;
49590;SDS011;35496;-21.974;-46.800;2022-12-20T07:33:54;8.93;;;1.52;;
49590;SDS011;35496;-21.974;-46.800;2022-12-20T07:36:21;2.92;;;1.52;;
49590;SDS011;35496;-21.974;-46.800;2022-12-20T07:38:47;2.58;;;0.75;;
49590;SDS011;35496;-21.974;-46.800;2022-12-20T07:41:15;1.85;;;1.08;;
49590;SDS011;35496;-21.974;-46.800;2022-12-20T07:43:43;1.50;;;0.90;;
49590;SDS011;35496;-21.974;-46.800;2022-12-20T07:46:11;1.05;;;0.80;;
49590;SDS011;35496;-21.974;-46.800;2022-12-20T07:48:40;4.68;;;1.50;;
49590;SDS011;35496;-21.974;-46.800;2022-12-20T07:51:19;0.73;;;0.73;;
49590;SDS011;35496;-21.974;-46.800;2022-12-20T07:53:53;1.33;;;1.23;;
49590;SDS011;35496;-21.974;-46.800;2022-12-20T07:56:30;1.38;;;1.00;;
49590;SDS011;35496;-21.974;-46.800;2022-12-20T07:58:59;1.40;;;1.30;;
49590;SDS011;35496;-21.974;-46.800;2022-12-20T08:01:27;1.88;;;1.25;;
49590;SDS011;35496;-21.974;-46.800;2022-12-20T08:03:59;2.88;;;1.85;;
49590;SDS011;35496;-21.974;-46.800;2022-12-20T08:06:30;6.53;;;2.08;;
49590;SDS011;35496;-21.974;-46.800;2022-12-20T08:08:59;2.42;;;2.22;;
49590;SDS011;35496;-21.974;-46.800;2022-12-20T08:11:29;4.10;;;2.47;;
49590;SDS011;35496;-21.974;-46.800;2022-12-20T08:13:58;1.92;;;1.25;;
49590;SDS011;35496;-21.974;-46.800;2022-12-20T08:16:24;2.65;;;2.45;;
49590;SDS011;35496;-21.974;-46.800;2022-12-20T08:18:51;5.97;;;2.13;;
49590;SDS011;35496;-21.974;-46.800;2022-12-20T08:21:18;4.18;;;2.28;;
49590;SDS011;35496;-21.974;-46.800;2022-12-20T08:23:45;1.95;;;1.77;;
49590;SDS011;35496;-21.974;-46.800;2022-12-20T08:26:11;3.05;;;2.17;;
49590;SDS011;35496;-21.974;-46.800;2022-12-20T08:28:38;2.90;;;2.70;;
49590;SDS011;35496;-21.974;-46.800;2022-12-20T08:31:05;3.63;;;3.30;;
49590;SDS011;35496;-21.974;-46.800;2022-12-20T08:33:35;6.57;;;4.30;;
49590;SDS011;35496;-21.974;-46.800;2022-12-20T08:36:04;4.80;;;3.92;;
49590;SDS011;35496;-21.974;-46.800;2022-12-20T08:38:32;4.80;;;3.67;;
49590;SDS011;35496;-21.974;-46.800;2022-12-20T08:41:03;6.78;;;3.63;;
49590;SDS011;35496;-21.974;-46.800;2022-12-20T08:43:33;4.50;;;2.47;;
49590;SDS011;35496;-21.974;-46.800;2022-12-20T08:46:00;3.67;;;2.03;;
49590;SDS011;35496;-21.974;-46.800;2022-12-20T08:48:27;2.50;;;2.30;;
49590;SDS011;35496;-21.974;-46.800;2022-12-20T08:50:56;3.72;;;3.10;;
49590;SDS011;35496;-21.974;-46.800;2022-12-20T08:53:25;2.17;;;2.08;;
49590;SDS011;35496;-21.974;-46.800;2022-12-20T08:55:52;4.57;;;3.08;;
49590;SDS011;35496;-21.974;-46.800;2022-12-20T08:58:20;3.38;;;2.97;;
49590;SDS011;35496;-21.974;-46.800;2022-12-20T09:00:46;3.90;;;3.15;;
49590;SDS011;35496;-21.974;-46.800;2022-12-20T09:03:13;3.05;;;2.40;;
49590;SDS011;35496;-21.974;-46.800;2022-12-20T09:05:43;16.00;;;3.03;;
49590;SDS011;35496;-21.974;-46.800;2022-12-20T09:08:15;4.65;;;2.17;;
49590;SDS011;35496;-21.974;-46.800;2022-12-20T09:10:42;2.90;;;1.80;;
49590;SDS011;35496;-21.974;-46.800;2022-12-20T09:13:09;4.72;;;2.60;;
49590;SDS011;35496;-21.974;-46.800;2022-12-20T09:15:36;3.17;;;2.28;;
49590;SDS011;35496;-21.974;-46.800;2022-12-20T09:18:03;2.33;;;2.13;;
49590;SDS011;35496;-21.974;-46.800;2022-12-20T09:20:30;6.38;;;2.83;;
49590;SDS011;35496;-21.974;-46.800;2022-12-20T09:22:57;5.50;;;2.45;;
49590;SDS011;35496;-21.974;-46.800;2022-12-20T09:25:25;2.65;;;2.45;;
49590;SDS011;35496;-21.974;-46.800;2022-12-20T09:27:53;2.33;;;2.17;;
49590;SDS011;35496;-21.974;-46.800;2022-12-20T09:30:21;4.45;;;1.90;;
49590;SDS011;35496;-21.974;-46.800;2022-12-20T09:32:48;2.92;;;2.70;;
49590;SDS011;35496;-21.974;-46.800;2022-12-20T09:35:15;3.15;;;2.85;;
49590;SDS011;35496;-21.974;-46.800;2022-12-20T09:37:41;4.90;;;2.60;;
49590;SDS011;35496;-21.974;-46.800;2022-12-20T09:40:13;2.30;;;2.00;;
49590;SDS011;35496;-21.974;-46.800;2022-12-20T09:42:47;2.75;;;2.25;;
49590;SDS011;35496;-21.974;-46.800;2022-12-20T09:45:24;2.95;;;2.50;;
49590;SDS011;35496;-21.974;-46.800;2022-12-20T09:47:53;2.17;;;1.95;;
49590;SDS011;35496;-21.974;-46.800;2022-12-20T09:50:21;3.70;;;2.97;;
49590;SDS011;35496;-21.974;-46.800;2022-12-20T09:56:07;2.50;;;2.30;;
49590;SDS011;35496;-21.974;-46.800;2022-12-20T10:01:23;2.88;;;1.88;;
49590;SDS011;35496;-21.974;-46.800;2022-12-20T10:03:52;2.72;;;1.95;;
49590;SDS011;35496;-21.974;-46.800;2022-12-20T10:09:03;5.88;;;3.22;;
49590;SDS011;35496;-21.974;-46.800;2022-12-20T10:17:10;4.90;;;3.58;;
49590;SDS011;35496;-21.974;-46.800;2022-12-20T10:25:42;6.18;;;3.17;;
49590;SDS011;35496;-21.974;-46.800;2022-12-20T10:28:14;4.13;;;3.15;;
49590;SDS011;35496;-21.974;-46.800;2022-12-20T10:30:42;4.93;;;4.25;;
49590;SDS011;35496;-21.974;-46.800;2022-12-20T10:33:19;8.13;;;4.00;;
49590;SDS011;35496;-21.974;-46.800;2022-12-20T10:35:47;7.53;;;4.22;;
49590;SDS011;35496;-21.974;-46.800;2022-12-20T10:38:15;4.68;;;4.05;;
49590;SDS011;35496;-21.974;-46.800;2022-12-20T10:40:44;8.48;;;4.10;;
49590;SDS011;35496;-21.974;-46.800;2022-12-20T10:43:20;5.43;;;3.60;;
49590;SDS011;35496;-21.974;-46.800;2022-12-20T10:46:00;5.38;;;4.28;;
49590;SDS011;35496;-21.974;-46.800;2022-12-20T10:51:02;4.45;;;3.28;;
49590;SDS011;35496;-21.974;-46.800;2022-12-20T10:53:56;3.53;;;2.05;;
49590;SDS011;35496;-21.974;-46.800;2022-12-20T10:56:34;5.70;;;1.92;;
49590;SDS011;35496;-21.974;-46.800;2022-12-20T11:01:47;4.80;;;2.85;;
49590;SDS011;35496;-21.974;-46.800;2022-12-20T11:04:26;3.38;;;2.88;;
49590;SDS011;35496;-21.974;-46.800;2022-12-20T11:06:53;7.55;;;5.50;;
49590;SDS011;35496;-21.974;-46.800;2022-12-20T11:09:30;6.93;;;4.97;;
49590;SDS011;35496;-21.974;-46.800;2022-12-20T11:14:27;12.65;;;6.78;;
49590;SDS011;35496;-21.974;-46.800;2022-12-20T11:16:55;12.02;;;7.07;;
49590;SDS011;35496;-21.974;-46.800;2022-12-20T11:19:37;16.38;;;10.05;;
49590;SDS011;35496;-21.974;-46.800;2022-12-20T11:22:29;17.08;;;7.18;;
49590;SDS011;35496;-21.974;-46.800;2022-12-20T11:27:39;15.60;;;6.55;;
49590;SDS011;35496;-21.974;-46.800;2022-12-20T11:33:22;6.95;;;4.00;;
49590;SDS011;35496;-21.974;-46.800;2022-12-20T11:35:44;9.70;;;4.95;;
49590;SDS011;35496;-21.974;-46.800;2022-12-20T11:41:17;3.08;;;1.63;;
49590;SDS011;35496;-21.974;-46.800;2022-12-20T11:43:59;4.07;;;1.35;;
49590;SDS011;35496;-21.974;-46.800;2022-12-20T11:49:10;1.10;;;1.10;;
49590;SDS011;35496;-21.974;-46.800;2022-12-20T11:54:47;1.80;;;1.00;;
49590;SDS011;35496;-21.974;-46.800;2022-12-20T11:57:24;1.50;;;1.13;;
49590;SDS011;35496;-21.974;-46.800;2022-12-20T11:59:59;1.63;;;1.05;;
49590;SDS011;35496;-21.974;-46.800;2022-12-20T12:05:51;2.90;;;1.55;;
49590;SDS011;35496;-21.974;-46.800;2022-12-20T12:08:10;2.17;;;0.95;;
49590;SDS011;35496;-21.974;-46.800;2022-12-20T12:11:51;2.85;;;1.80;;
49590;SDS011;35496;-21.974;-46.800;2022-12-20T12:13:55;2.42;;;1.20;;
49590;SDS011;35496;-21.974;-46.800;2022-12-20T12:16:26;1.48;;;1.40;;
49590;SDS011;35496;-21.974;-46.800;2022-12-20T12:18:56;1.10;;;1.10;;
49590;SDS011;35496;-21.974;-46.800;2022-12-20T12:21:36;1.30;;;1.20;;
49590;SDS011;35496;-21.974;-46.800;2022-12-20T12:24:06;4.15;;;2.22;;
49590;SDS011;35496;-21.974;-46.800;2022-12-20T12:26:52;1.98;;;1.77;;
49590;SDS011;35496;-21.974;-46.800;2022-12-20T12:29:19;1.25;;;1.17;;
49590;SDS011;35496;-21.974;-46.800;2022-12-20T12:31:49;1.85;;;1.10;;
49590;SDS011;35496;-21.974;-46.800;2022-12-20T12:37:09;1.13;;;1.08;;
49590;SDS011;35496;-21.974;-46.800;2022-12-20T12:42:34;1.65;;;0.95;;
49590;SDS011;35496;-21.974;-46.800;2022-12-20T12:45:25;1.02;;;1.02;;
49590;SDS011;35496;-21.974;-46.800;2022-12-20T12:48:00;5.10;;;1.40;;
49590;SDS011;35496;-21.974;-46.800;2022-12-20T12:50:36;4.60;;;1.83;;
49590;SDS011;35496;-21.974;-46.800;2022-12-20T12:55:47;5.72;;;3.08;;
49590;SDS011;35496;-21.974;-46.800;2022-12-20T13:11:29;2.15;;;1.35;;
49590;SDS011;35496;-21.974;-46.800;2022-12-20T13:16:37;0.75;;;0.75;;
49590;SDS011;35496;-21.974;-46.800;2022-12-20T13:21:45;0.80;;;0.80;;
49590;SDS011;35496;-21.974;-46.800;2022-12-20T13:27:01;0.80;;;0.80;;
49590;SDS011;35496;-21.974;-46.800;2022-12-20T13:29:42;1.20;;;1.10;;
49590;SDS011;35496;-21.974;-46.800;2022-12-20T13:37:52;1.50;;;1.40;;
49590;SDS011;35496;-21.974;-46.800;2022-12-20T13:40:38;1.83;;;1.73;;
49590;SDS011;35496;-21.974;-46.800;2022-12-20T13:46:01;2.40;;;2.20;;
49590;SDS011;35496;-21.974;-46.800;2022-12-20T13:51:01;1.80;;;1.67;;
49590;SDS011;35496;-21.974;-46.800;2022-12-20T13:53:28;1.90;;;1.80;;
49590;SDS011;35496;-21.974;-46.800;2022-12-20T13:55:56;4.30;;;2.38;;
49590;SDS011;35496;-21.974;-46.800;2022-12-20T13:58:24;6.68;;;2.70;;
49590;SDS011;35496;-21.974;-46.800;2022-12-20T14:01:32;5.68;;;2.85;;
49590;SDS011;35496;-21.974;-46.800;2022-12-20T14:03:51;6.15;;;4.13;;
49590;SDS011;35496;-21.974;-46.800;2022-12-20T14:06:19;5.00;;;3.95;;
49590;SDS011;35496;-21.974;-46.800;2022-12-20T14:08:48;8.75;;;4.10;;
49590;SDS011;35496;-21.974;-46.800;2022-12-20T14:11:17;6.85;;;3.03;;
49590;SDS011;35496;-21.974;-46.800;2022-12-20T14:13:51;2.15;;;1.73;;
49590;SDS011;35496;-21.974;-46.800;2022-12-20T14:16:23;2.42;;;2.22;;
49590;SDS011;35496;-21.974;-46.800;2022-12-20T14:19:04;4.75;;;2.58;;
49590;SDS011;35496;-21.974;-46.800;2022-12-20T14:21:38;3.05;;;2.58;;
49590;SDS011;35496;-21.974;-46.800;2022-12-20T14:24:11;3.20;;;2.90;;
49590;SDS011;35496;-21.974;-46.800;2022-12-20T14:26:42;7.05;;;4.00;;
49590;SDS011;35496;-21.974;-46.800;2022-12-20T14:29:19;7.95;;;5.88;;
49590;SDS011;35496;-21.974;-46.800;2022-12-20T14:31:53;8.57;;;6.32;;
49590;SDS011;35496;-21.974;-46.800;2022-12-20T14:34:28;12.10;;;3.45;;
49590;SDS011;35496;-21.974;-46.800;2022-12-20T14:40:13;6.90;;;3.10;;
49590;SDS011;35496;-21.974;-46.800;2022-12-20T14:42:43;2.13;;;1.58;;
49590;SDS011;35496;-21.974;-46.800;2022-12-20T14:47:47;6.97;;;2.85;;
49590;SDS011;35496;-21.974;-46.800;2022-12-20T14:50:57;3.90;;;1.45;;
49590;SDS011;35496;-21.974;-46.800;2022-12-20T14:53:22;3.95;;;3.17;;
49590;SDS011;35496;-21.974;-46.800;2022-12-20T14:55:53;2.38;;;2.17;;
49590;SDS011;35496;-21.974;-46.800;2022-12-20T14:58:30;6.70;;;4.18;;
49590;SDS011;35496;-21.974;-46.800;2022-12-20T15:01:41;9.90;;;4.22;;
49590;SDS011;35496;-21.974;-46.800;2022-12-20T15:03:58;5.22;;;2.50;;
49590;SDS011;35496;-21.974;-46.800;2022-12-20T15:06:30;4.97;;;3.33;;
49590;SDS011;35496;-21.974;-46.800;2022-12-20T15:09:06;1.98;;;1.27;;
49590;SDS011;35496;-21.974;-46.800;2022-12-20T15:11:33;4.90;;;1.33;;
49590;SDS011;35496;-21.974;-46.800;2022-12-20T15:14:01;4.03;;;2.50;;
49590;SDS011;35496;-21.974;-46.800;2022-12-20T15:16:35;2.00;;;1.40;;
49590;SDS011;35496;-21.974;-46.800;2022-12-20T15:19:13;1.05;;;1.05;;
49590;SDS011;35496;-21.974;-46.800;2022-12-20T15:21:41;1.27;;;1.23;;
49590;SDS011;35496;-21.974;-46.800;2022-12-20T15:24:17;1.13;;;1.02;;
49590;SDS011;35496;-21.974;-46.800;2022-12-20T15:26:50;1.23;;;0.90;;
49590;SDS011;35496;-21.974;-46.800;2022-12-20T15:29:18;1.25;;;1.00;;
49590;SDS011;35496;-21.974;-46.800;2022-12-20T15:31:51;1.77;;;0.88;;
49590;SDS011;35496;-21.974;-46.800;2022-12-20T15:34:32;0.73;;;0.60;;
49590;SDS011;35496;-21.974;-46.800;2022-12-20T15:37:01;0.80;;;0.57;;
49590;SDS011;35496;-21.974;-46.800;2022-12-20T15:39:29;2.20;;;0.93;;
49590;SDS011;35496;-21.974;-46.800;2022-12-20T15:41:57;0.93;;;0.50;;
49590;SDS011;35496;-21.974;-46.800;2022-12-20T15:44:26;2.83;;;1.13;;
49590;SDS011;35496;-21.974;-46.800;2022-12-20T15:46:55;1.15;;;0.50;;
49590;SDS011;35496;-21.974;-46.800;2022-12-20T15:49:23;1.15;;;0.63;;
49590;SDS011;35496;-21.974;-46.800;2022-12-20T15:51:51;3.80;;;0.85;;
49590;SDS011;35496;-21.974;-46.800;2022-12-20T15:54:26;0.47;;;0.47;;
49590;SDS011;35496;-21.974;-46.800;2022-12-20T15:56:53;2.60;;;0.90;;
49590;SDS011;35496;-21.974;-46.800;2022-12-20T15:59:21;1.58;;;0.50;;
49590;SDS011;35496;-21.974;-46.800;2022-12-20T16:01:47;1.20;;;0.88;;
49590;SDS011;35496;-21.974;-46.800;2022-12-20T16:04:15;1.17;;;0.95;;
49590;SDS011;35496;-21.974;-46.800;2022-12-20T16:06:45;2.05;;;0.90;;
49590;SDS011;35496;-21.974;-46.800;2022-12-20T16:09:14;1.25;;;0.95;;
49590;SDS011;35496;-21.974;-46.800;2022-12-20T16:11:41;1.73;;;1.63;;
49590;SDS011;35496;-21.974;-46.800;2022-12-20T16:14:10;1.50;;;1.40;;
49590;SDS011;35496;-21.974;-46.800;2022-12-20T16:16:42;4.13;;;1.98;;
49590;SDS011;35496;-21.974;-46.800;2022-12-20T16:19:09;0.90;;;0.90;;